Terminal Aerodrome Forecast
Issued by NWS Atlanta, GA

Home | Current Version | Previous Version | Text Only | Print | Product List | Glossary On
Versions: 1 2 3 4 5 6 7 8 9 10 11 12 13 14 15 16 17 18
000
FTUS42 KFFC 222330
TAFMCN
TAF
KMCN 222330Z 2300/2324 21005KT P6SM FEW050
     FM230300 00000KT P6SM SCT250
     FM231600 27007KT P6SM VCSH BKN045 PROB30 2319/2322 4SM TSRA
      BKN035CB=

USA.gov is the U.S. government's official web portal to all federal, state and local government web resources and services.